Time;durP1;ratioP1;P1;durP2;ratioP2;P2;SDS_P1;SDS_P2;PMS_P1;PMS_P2;Temp;Humidity;BMP_temperature;BMP_pressure;BME280_temperature;BME280_humidity;BME280_pressure;Samples;Min_cycle;Max_cycle;Signal;HPM_P1;HPM_P2
2023/06/30 00:01:32;;;;;;;;;;;;;;;22.45;29.03;97737.66;4982047;28;1196;-74
2023/06/30 00:03:57;;;;;;;;;;;;;;;22.55;28.92;97747.81;4998348;28;979;-73
2023/06/30 00:06:23;;;;;;;;;;;;;;;22.56;28.97;97750.19;4982639;28;954;-74
2023/06/30 00:08:48;;;;;;;;;;;;;;;22.55;28.70;97742.94;5014634;28;1184;-73
2023/06/30 00:11:14;;;;;;;;;;;;;;;22.63;28.57;97747.09;4981950;28;985;-73
2023/06/30 00:13:40;;;;;;;;;;;;;;;22.75;28.36;97745.50;4998266;28;1023;-73
2023/06/30 00:16:05;;;;;;;;;;;;;;;22.73;28.60;97745.16;4998058;28;1976;-75
2023/06/30 00:18:30;;;;;;;;;;;;;;;22.58;28.84;97741.22;4998173;28;975;-74
2023/06/30 00:20:57;;;;;;;;;;;;;;;22.67;28.68;97738.47;4998069;28;951;-72
2023/06/30 00:23:23;;;;;;;;;;;;;;;22.59;28.78;97737.16;5009752;28;920;-73
2023/06/30 00:25:48;;;;;;;;;;;;;;;22.66;28.60;97731.22;5019139;28;1346;-74
2023/06/30 00:28:13;;;;;;;;;;;;;;;22.43;29.24;97734.44;5018843;28;1220;-73
2023/06/30 00:30:39;;;;;;;;;;;;;;;22.52;29.31;97731.72;5035296;28;1032;-73
2023/06/30 00:33:04;;;;;;;;;;;;;;;22.64;29.05;97733.75;5018943;28;1481;-73
2023/06/30 00:35:30;;;;;;;;;;;;;;;22.72;28.63;97729.38;5036261;28;1898;-74
2023/06/30 00:37:55;;;;;;;;;;;;;;;22.75;28.85;97728.47;5018872;28;1048;-73
2023/06/30 00:40:21;;;;;;;;;;;;;;;22.46;29.07;97728.66;5001963;28;1153;-74
2023/06/30 00:42:47;;;;;;;;;;;;;;;22.66;29.00;97722.72;5017550;28;1190;-74
2023/06/30 00:45:13;;;;;;;;;;;;;;;22.70;28.72;97723.38;5034071;28;1087;-74
2023/06/30 00:47:38;;;;;;;;;;;;;;;22.54;29.05;97723.56;5001338;28;1188;-74
2023/06/30 00:50:04;;;;;;;;;;;;;;;22.66;28.82;97725.56;5001152;28;989;-75
2023/06/30 00:52:29;;;;;;;;;;;;;;;22.45;29.48;97727.09;5017568;28;1022;-74
2023/06/30 00:54:56;;;;;;;;;;;;;;;22.49;29.65;97726.97;5001244;28;1306;-73
2023/06/30 00:57:22;;;;;;;;;;;;;;;22.47;29.72;97727.41;5001202;28;1927;-74
2023/06/30 00:59:47;;;;;;;;;;;;;;;22.64;29.06;97725.22;5000872;28;1129;-73
2023/06/30 01:02:20;;;;;;;;;;;;;;;22.65;29.40;97718.31;5017429;28;1254;-74
2023/06/30 01:04:47;;;;;;;;;;;;;;;22.49;29.38;97726.97;5017152;28;948;-75
2023/06/30 01:07:32;;;;;;;;;;;;;;;22.76;29.08;97727.22;5017617;28;984;-74
2023/06/30 01:10:03;;;;;;;;;;;;;;;22.48;29.23;97725.38;5033811;28;961;-74
2023/06/30 01:12:29;;;;;;;;;;;;;;;22.63;28.95;97726.47;5017360;28;1239;-73
2023/06/30 01:14:54;;;;;;;;;;;;;;;22.75;29.15;97725.66;5017572;28;967;-74
2023/06/30 01:17:20;;;;;;;;;;;;;;;22.58;29.36;97725.00;5017231;28;1910;-73
2023/06/30 01:19:47;;;;;;;;;;;;;;;22.47;29.50;97729.47;5004365;28;1463;-74
2023/06/30 01:22:19;;;;;;;;;;;;;;;22.55;29.72;97725.16;5034505;28;1153;-74
2023/06/30 01:24:45;;;;;;;;;;;;;;;22.80;29.29;97730.72;5036084;28;887;-74
2023/06/30 01:27:12;;;;;;;;;;;;;;;22.68;29.32;97731.56;5017073;28;934;-74
2023/06/30 01:29:42;;;;;;;;;;;;;;;22.74;28.99;97732.56;5033695;28;1016;-74
2023/06/30 01:32:08;;;;;;;;;;;;;;;22.66;29.29;97734.06;5001322;28;1236;-73
2023/06/30 01:34:33;;;;;;;;;;;;;;;22.55;29.56;97730.81;5000795;28;1223;-74
2023/06/30 01:37:00;;;;;;;;;;;;;;;22.65;29.10;97734.53;5000836;28;1910;-74
2023/06/30 01:39:26;;;;;;;;;;;;;;;22.63;29.14;97744.25;5033607;28;1042;-73
2023/06/30 01:41:52;;;;;;;;;;;;;;;22.53;29.38;97741.81;5033264;28;956;-73
2023/06/30 01:44:17;;;;;;;;;;;;;;;22.58;29.55;97738.38;5000745;28;1467;-74
2023/06/30 01:46:43;;;;;;;;;;;;;;;22.62;29.37;97736.22;5017351;28;933;-74
2023/06/30 01:49:09;;;;;;;;;;;;;;;22.67;29.41;97738.47;5000722;28;1202;-74
2023/06/30 01:51:34;;;;;;;;;;;;;;;22.59;29.62;97749.28;5018448;28;1159;-74
2023/06/30 01:54:00;;;;;;;;;;;;;;;22.62;29.44;97736.22;5020514;28;943;-74
2023/06/30 01:56:25;;;;;;;;;;;;;;;22.61;29.55;97726.94;5037171;28;1914;-73
2023/06/30 01:58:51;;;;;;;;;;;;;;;22.51;29.73;97735.81;5033561;28;1306;-75
2023/06/30 02:01:16;;;;;;;;;;;;;;;22.55;29.66;97736.47;5021477;28;1076;-74
2023/06/30 02:03:42;;;;;;;;;;;;;;;22.43;29.68;97734.44;5020035;28;1131;-74
2023/06/30 02:06:07;;;;;;;;;;;;;;;22.74;29.25;97721.22;5020492;28;984;-74
2023/06/30 02:08:33;;;;;;;;;;;;;;;22.48;29.56;97731.03;5019839;28;1203;-74
2023/06/30 02:10:58;;;;;;;;;;;;;;;22.71;29.12;97727.81;5019946;28;1160;-73
2023/06/30 02:13:25;;;;;;;;;;;;;;;22.66;29.26;97719.88;5020162;28;1246;-74
2023/06/30 02:15:50;;;;;;;;;;;;;;;22.72;29.21;97728.59;5003880;28;1906;-74
2023/06/30 02:18:16;;;;;;;;;;;;;;;22.47;29.56;97735.13;5019899;28;920;-74
2023/06/30 02:20:41;;;;;;;;;;;;;;;22.56;29.31;97732.38;5019812;28;993;-74
2023/06/30 02:23:07;;;;;;;;;;;;;;;22.69;29.14;97736.00;5020069;28;1014;-75
2023/06/30 02:25:32;;;;;;;;;;;;;;;22.72;29.11;97737.91;5003562;28;1211;-74
2023/06/30 02:27:58;;;;;;;;;;;;;;;22.60;29.20;97738.75;5003636;28;1440;-74
2023/06/30 02:30:23;;;;;;;;;;;;;;;22.57;29.21;97739.63;5003748;28;1217;-74
2023/06/30 02:32:49;;;;;;;;;;;;;;;21.89;29.48;97647.59;5003440;28;1266;-73
2023/06/30 02:35:15;;;;;;;;;;;;;;;22.61;29.28;97740.31;5019552;28;1985;-74
2023/06/30 02:37:40;;;;;;;;;;;;;;;22.58;29.48;97741.22;5036208;28;979;-73
2023/06/30 02:40:07;;;;;;;;;;;;;;;22.59;29.48;97748.50;5003358;28;1243;-74
2023/06/30 02:42:33;;;;;;;;;;;;;;;22.51;29.41;97753.59;5020962;28;1209;-74
2023/06/30 02:44:58;;;;;;;;;;;;;;;22.61;29.26;97752.44;5037365;28;1077;-74
2023/06/30 02:47:24;;;;;;;;;;;;;;;22.39;29.55;97739.47;5020863;28;883;-74
2023/06/30 02:49:49;;;;;;;;;;;;;;;22.67;29.15;97746.19;4999744;28;1202;-74
2023/06/30 02:52:16;;;;;;;;;;;;;;;22.79;28.58;97751.03;4983894;28;1123;-73
2023/06/30 02:54:41;;;;;;;;;;;;;;;22.63;28.88;97749.16;4983295;28;1326;-73
2023/06/30 02:57:07;;;;;;;;;;;;;;;22.51;29.20;97752.81;4983689;28;1902;-74
2023/06/30 02:59:33;;;;;;;;;;;;;;;22.67;29.04;97754.69;4976624;28;1179;-74
2023/06/30 03:01:59;;;;;;;;;;;;;;;22.58;29.11;97761.06;4976428;28;957;-74
2023/06/30 03:04:25;;;;;;;;;;;;;;;22.40;29.35;97758.06;4960595;28;1116;-74
2023/06/30 03:06:50;;;;;;;;;;;;;;;22.82;28.52;97750.91;4960855;28;1125;-73
2023/06/30 03:09:16;;;;;;;;;;;;;;;22.47;29.23;97752.16;4976461;28;1176;-74
2023/06/30 03:11:42;;;;;;;;;;;;;;;22.53;29.13;97758.81;4976624;28;1182;-73
2023/06/30 03:14:07;;;;;;;;;;;;;;;22.64;28.88;97756.44;4960262;28;1393;-74
2023/06/30 03:16:40;;;;;;;;;;;;;;;22.74;28.73;97760.13;4975658;28;1987;-74
2023/06/30 03:19:06;;;;;;;;;;;;;;;22.82;28.80;97753.75;4976422;28;1064;-74
2023/06/30 03:21:32;;;;;;;;;;;;;;;22.59;29.12;97759.84;4991172;28;1114;-76
2023/06/30 03:23:57;;;;;;;;;;;;;;;22.55;29.11;97756.34;4976197;28;1203;-76
2023/06/30 03:26:23;;;;;;;;;;;;;;;22.66;28.92;97753.91;4958417;28;1504;-75
2023/06/30 03:28:48;;;;;;;;;;;;;;;22.41;29.36;97749.09;4967762;28;1302;-76
2023/06/30 03:31:14;;;;;;;;;;;;;;;22.59;29.00;97754.16;4975480;28;1238;-75
2023/06/30 03:33:40;;;;;;;;;;;;;;;22.40;29.33;97758.06;4963381;28;1113;-75
2023/06/30 03:36:07;;;;;;;;;;;;;;;22.58;29.10;97761.06;4963282;28;1895;-76
2023/06/30 03:38:32;;;;;;;;;;;;;;;22.69;28.93;97764.34;4978495;28;1826;-75
2023/06/30 03:40:58;;;;;;;;;;;;;;;22.61;28.91;97757.34;4960013;28;1227;-76
2023/06/30 03:43:28;;;;;;;;;;;;;;;22.38;29.46;97760.53;4944711;28;944;-76
2023/06/30 03:45:53;;;;;;;;;;;;;;;22.70;28.93;97754.59;4959987;28;1195;-75
2023/06/30 03:48:20;;;;;;;;;;;;;;;22.49;29.19;97767.47;4944026;28;1216;-75
2023/06/30 03:50:47;;;;;;;;;;;;;;;22.40;29.30;97755.22;4943366;28;1625;-76
2023/06/30 03:53:13;;;;;;;;;;;;;;;22.58;29.15;97761.84;4978984;28;1420;-75
2023/06/30 03:55:38;;;;;;;;;;;;;;;22.51;29.34;97767.00;4994430;28;1977;-75
2023/06/30 03:58:04;;;;;;;;;;;;;;;22.64;28.86;97767.78;4982250;28;1347;-76
2023/06/30 04:00:31;;;;;;;;;;;;;;;22.65;29.10;97765.72;5014981;28;1005;-76
2023/06/30 04:02:57;;;;;;;;;;;;;;;22.65;29.09;97769.34;5014516;28;970;-75
2023/06/30 04:05:22;;;;;;;;;;;;;;;22.85;28.92;97757.72;5034628;28;1016;-76
2023/06/30 04:07:48;;;;;;;;;;;;;;;22.65;29.27;97763.69;5019074;28;1681;-76
2023/06/30 04:10:13;;;;;;;;;;;;;;;22.53;29.34;97770.16;5014435;28;970;-75
2023/06/30 04:12:39;;;;;;;;;;;;;;;22.48;29.32;97770.72;5016602;28;904;-75
2023/06/30 04:15:07;;;;;;;;;;;;;;;22.44;29.75;97770.09;5016375;28;967;-75
2023/06/30 04:17:33;;;;;;;;;;;;;;;22.75;29.30;97773.84;5016455;28;1914;-76
2023/06/30 04:19:58;;;;;;;;;;;;;;;22.66;29.39;97773.75;5020452;28;1817;-76
2023/06/30 04:22:23;;;;;;;;;;;;;;;22.67;29.20;97771.72;5031331;28;1833;-76
2023/06/30 04:24:49;;;;;;;;;;;;;;;22.72;29.34;97774.75;5035602;28;1593;-74
2023/06/30 04:27:14;;;;;;;;;;;;;;;22.77;29.32;97771.34;5034988;28;1144;-74
2023/06/30 04:29:40;;;;;;;;;;;;;;;22.72;29.31;97774.75;5035910;28;1507;-74
2023/06/30 04:32:05;;;;;;;;;;;;;;;22.81;29.42;97772.03;5036454;28;940;-74
2023/06/30 04:34:31;;;;;;;;;;;;;;;22.67;29.49;97783.84;5036338;28;847;-74
2023/06/30 04:36:56;;;;;;;;;;;;;;;22.66;29.76;97782.28;5036561;28;1914;-74
2023/06/30 04:39:22;;;;;;;;;;;;;;;22.84;29.31;97785.28;5035514;28;1630;-75
2023/06/30 04:41:47;;;;;;;;;;;;;;;22.64;29.76;97784.78;5031855;28;940;-75
2023/06/30 04:44:13;;;;;;;;;;;;;;;22.60;30.00;97790.56;5016438;28;902;-74
2023/06/30 04:46:38;;;;;;;;;;;;;;;22.75;29.69;97785.22;5018478;28;2256;-74
2023/06/30 04:49:04;;;;;;;;;;;;;;;22.80;29.79;97793.13;5015447;28;939;-75
2023/06/30 04:51:30;;;;;;;;;;;;;;;22.71;29.75;97778.84;5031494;28;849;-74
2023/06/30 04:53:55;;;;;;;;;;;;;;;22.80;29.68;97792.34;5035443;28;985;-74
2023/06/30 04:56:21;;;;;;;;;;;;;;;22.72;29.71;97791.78;5036594;28;1971;-74
2023/06/30 04:58:48;;;;;;;;;;;;;;;22.93;29.44;97798.00;5036345;28;926;-74
2023/06/30 05:01:14;;;;;;;;;;;;;;;22.92;29.62;97802.09;5018688;28;1060;-75
2023/06/30 05:03:39;;;;;;;;;;;;;;;22.70;30.01;97805.63;5031367;28;1543;-75
2023/06/30 05:06:05;;;;;;;;;;;;;;;22.86;29.50;97805.47;5016647;28;990;-74
2023/06/30 05:08:30;;;;;;;;;;;;;;;22.49;30.19;97806.38;5012914;28;1178;-74
2023/06/30 05:10:56;;;;;;;;;;;;;;;22.88;29.73;97811.50;5035865;28;915;-74
2023/06/30 05:13:21;;;;;;;;;;;;;;;22.62;29.89;97815.63;5035871;28;917;-75
2023/06/30 05:15:47;;;;;;;;;;;;;;;22.75;29.79;97812.78;5036054;28;1914;-74
2023/06/30 05:18:12;;;;;;;;;;;;;;;22.88;29.73;97822.06;5035949;28;976;-75
2023/06/30 05:20:39;;;;;;;;;;;;;;;22.74;30.09;97817.66;5036033;28;843;-75
2023/06/30 05:23:04;;;;;;;;;;;;;;;22.98;29.49;97815.22;5020211;28;1369;-74
2023/06/30 05:25:30;;;;;;;;;;;;;;;22.79;29.74;97819.09;5034884;28;1345;-75
2023/06/30 05:27:55;;;;;;;;;;;;;;;22.61;30.27;97814.03;5020886;28;1123;-75
2023/06/30 05:30:21;;;;;;;;;;;;;;;22.64;30.34;97827.31;5038941;28;993;-74
2023/06/30 05:32:46;;;;;;;;;;;;;;;22.75;30.15;97830.59;5025241;28;1450;-75
2023/06/30 05:35:12;;;;;;;;;;;;;;;22.93;29.82;97826.38;5019582;28;833;-74
2023/06/30 05:37:38;;;;;;;;;;;;;;;22.68;30.29;97818.69;5018173;28;1910;-75
2023/06/30 05:40:03;;;;;;;;;;;;;;;22.80;29.89;97821.50;5018391;28;1030;-75
2023/06/30 05:42:29;;;;;;;;;;;;;;;22.90;29.78;97822.41;5017876;28;1541;-74
2023/06/30 05:44:54;;;;;;;;;;;;;;;22.92;29.77;97822.75;5018393;28;1232;-74
2023/06/30 05:47:20;;;;;;;;;;;;;;;22.80;30.00;97832.06;5018612;28;1028;-74
2023/06/30 05:49:45;;;;;;;;;;;;;;;22.93;29.85;97824.31;5018961;28;1699;-74
2023/06/30 05:52:11;;;;;;;;;;;;;;;22.98;29.86;97820.09;5036789;28;1678;-74
2023/06/30 05:54:37;;;;;;;;;;;;;;;23.00;29.65;97840.28;5018356;28;1694;-75
2023/06/30 05:57:02;;;;;;;;;;;;;;;22.94;30.03;97836.47;4981189;28;1910;-74
2023/06/30 05:59:30;;;;;;;;;;;;;;;22.93;30.12;97832.03;4980584;28;1330;-75
2023/06/30 06:01:56;;;;;;;;;;;;;;;22.78;30.22;97841.00;5000790;28;940;-74
2023/06/30 06:04:21;;;;;;;;;;;;;;;22.72;30.32;97837.16;5000393;28;1850;-74
2023/06/30 06:06:47;;;;;;;;;;;;;;;22.82;29.99;97829.53;5002271;28;1719;-74
2023/06/30 06:09:12;;;;;;;;;;;;;;;23.01;29.81;97836.22;4984228;28;1484;-75
2023/06/30 06:11:39;;;;;;;;;;;;;;;23.04;29.75;97840.97;5000526;28;1030;-75
2023/06/30 06:14:04;;;;;;;;;;;;;;;22.75;29.99;97846.81;5017021;28;1498;-74
2023/06/30 06:16:30;;;;;;;;;;;;;;;22.78;30.04;97849.50;4984026;28;1918;-74
2023/06/30 06:18:55;;;;;;;;;;;;;;;22.64;29.94;97835.84;4961398;28;1251;-74
2023/06/30 06:21:24;;;;;;;;;;;;;;;22.75;29.79;97835.47;4977337;28;986;-74
2023/06/30 06:23:50;;;;;;;;;;;;;;;22.98;29.47;97842.81;4922583;29;1191;-74
2023/06/30 06:26:16;;;;;;;;;;;;;;;22.74;29.73;97839.53;4922147;29;1503;-75
2023/06/30 06:28:42;;;;;;;;;;;;;;;22.85;29.47;97840.78;4952807;28;951;-74
2023/06/30 06:31:08;;;;;;;;;;;;;;;22.61;30.03;97836.72;4961266;28;938;-75
2023/06/30 06:33:33;;;;;;;;;;;;;;;22.93;29.45;97829.19;4977143;28;924;-74
2023/06/30 06:35:59;;;;;;;;;;;;;;;22.77;29.74;97827.28;4957355;29;1981;-74
2023/06/30 06:38:24;;;;;;;;;;;;;;;23.10;29.17;97833.44;4957114;28;1018;-74
2023/06/30 06:40:49;;;;;;;;;;;;;;;22.95;29.41;97829.53;4941790;29;963;-74
2023/06/30 06:43:15;;;;;;;;;;;;;;;22.76;29.72;97820.81;4957696;29;1123;-73
2023/06/30 06:45:43;;;;;;;;;;;;;;;22.88;29.52;97822.06;4972573;28;1292;-73
2023/06/30 06:48:22;;;;;;;;;;;;;;;22.83;29.45;97819.78;4961102;28;928;-74
2023/06/30 06:50:48;;;;;;;;;;;;;;;22.74;29.48;97817.66;4974811;28;951;-74
2023/06/30 06:53:15;;;;;;;;;;;;;;;22.67;29.58;97823.56;4964058;28;1166;-74
2023/06/30 06:55:41;;;;;;;;;;;;;;;22.86;29.37;97819.66;4977726;28;1906;-74
2023/06/30 06:58:06;;;;;;;;;;;;;;;22.79;30.69;97813.44;4979874;28;987;-69
2023/06/30 07:00:32;;;;;;;;;;;;;;;23.05;30.45;97819.84;4996316;28;1006;-74
2023/06/30 07:02:57;;;;;;;;;;;;;;;23.04;30.26;97807.72;4996156;28;1028;-75
2023/06/30 07:05:23;;;;;;;;;;;;;;;22.90;30.77;97810.25;4967755;28;1340;-75
2023/06/30 07:07:48;;;;;;;;;;;;;;;22.94;30.47;97820.22;4960638;28;1572;-74
2023/06/30 07:10:14;;;;;;;;;;;;;;;22.59;31.05;97820.19;4960741;28;950;-75
2023/06/30 07:12:39;;;;;;;;;;;;;;;22.71;30.97;97821.41;4941368;29;942;-74
2023/06/30 07:15:05;;;;;;;;;;;;;;;22.71;30.84;97817.78;4950439;28;1574;-74
2023/06/30 07:17:30;;;;;;;;;;;;;;;22.59;30.82;97822.22;4976394;28;1985;-75
2023/06/30 07:19:56;;;;;;;;;;;;;;;22.84;30.48;97815.69;4960863;28;1219;-75
2023/06/30 07:22:22;;;;;;;;;;;;;;;22.93;30.26;97823.53;4974765;28;1231;-75
2023/06/30 07:24:48;;;;;;;;;;;;;;;22.94;29.90;97819.44;4998667;28;1539;-75
2023/06/30 07:27:13;;;;;;;;;;;;;;;22.83;30.14;97814.91;4998956;28;1011;-74
2023/06/30 07:29:39;;;;;;;;;;;;;;;22.74;30.43;97814.81;4982762;28;1448;-75
2023/06/30 07:32:04;;;;;;;;;;;;;;;22.90;29.98;97818.75;5015714;28;918;-74
2023/06/30 07:34:33;;;;;;;;;;;;;;;22.84;30.05;97822.16;4998265;28;1379;-74
2023/06/30 07:36:59;;;;;;;;;;;;;;;22.71;30.43;97829.91;4982842;28;1910;-75
2023/06/30 07:39:24;;;;;;;;;;;;;;;22.93;30.04;97821.47;4999073;28;1038;-75
2023/06/30 07:41:51;;;;;;;;;;;;;;;22.95;30.02;97823.84;4998905;28;1234;-75
2023/06/30 07:44:17;;;;;;;;;;;;;;;23.02;29.69;97832.13;5014770;28;1339;-75
2023/06/30 07:46:42;;;;;;;;;;;;;;;22.97;29.70;97824.19;5017320;28;955;-74
2023/06/30 07:49:08;;;;;;;;;;;;;;;22.77;30.41;97827.28;5016141;28;1096;-74
2023/06/30 07:51:33;;;;;;;;;;;;;;;22.82;30.34;97824.66;5017484;28;998;-74
2023/06/30 07:53:59;;;;;;;;;;;;;;;22.76;29.88;97832.16;5016026;28;1487;-75
2023/06/30 07:56:24;;;;;;;;;;;;;;;22.82;30.03;97827.50;5015746;28;1972;-74
2023/06/30 07:58:50;;;;;;;;;;;;;;;22.99;29.88;97836.66;4983448;28;1144;-75
2023/06/30 08:01:15;;;;;;;;;;;;;;;22.75;30.38;97833.44;4999662;28;1111;-75
2023/06/30 08:03:41;;;;;;;;;;;;;;;22.88;29.78;97833.41;5015901;28;1563;-75
2023/06/30 08:06:06;;;;;;;;;;;;;;;22.75;29.95;97836.25;5016418;28;1501;-75
2023/06/30 08:08:32;;;;;;;;;;;;;;;23.08;29.82;97835.97;5036717;28;1455;-74
2023/06/30 08:10:57;;;;;;;;;;;;;;;22.73;30.23;97833.06;5035633;28;1274;-74
2023/06/30 08:13:23;;;;;;;;;;;;;;;22.98;29.84;97834.28;5027380;28;1291;-74
2023/06/30 08:15:49;;;;;;;;;;;;;;;22.68;30.37;97830.03;5015294;28;1898;-74
2023/06/30 08:18:15;;;;;;;;;;;;;;;22.42;30.63;97837.75;5015962;28;954;-74
2023/06/30 08:20:41;;;;;;;;;;;;;;;22.82;30.20;97835.22;5015180;28;1026;-75
2023/06/30 08:23:07;;;;;;;;;;;;;;;22.97;29.54;97830.66;5007743;28;1409;-75
2023/06/30 08:25:32;;;;;;;;;;;;;;;22.68;30.17;97836.47;4978163;28;1160;-75
2023/06/30 08:27:58;;;;;;;;;;;;;;;22.91;29.80;97834.56;4978325;28;1084;-74
2023/06/30 08:30:23;;;;;;;;;;;;;;;22.86;30.10;97836.69;4962282;28;983;-75
2023/06/30 08:32:49;;;;;;;;;;;;;;;22.95;29.78;97836.03;4970599;28;1496;-75
2023/06/30 08:35:15;;;;;;;;;;;;;;;22.75;30.02;97829.81;4997955;28;1528;-75
2023/06/30 08:37:40;;;;;;;;;;;;;;;22.67;30.12;97829.22;4996638;28;2033;-75
2023/06/30 08:40:06;;;;;;;;;;;;;;;22.60;30.43;97823.81;4997513;28;1022;-74
2023/06/30 08:42:31;;;;;;;;;;;;;;;22.75;29.99;97824.13;5013776;28;969;-77
2023/06/30 08:44:57;;;;;;;;;;;;;;;22.63;30.12;97834.22;4981296;28;1005;-74
2023/06/30 08:47:28;;;;;;;;;;;;;;;22.85;29.74;97823.75;4994758;28;1500;-76
2023/06/30 08:49:54;;;;;;;;;;;;;;;22.94;29.76;97822.28;4996243;28;1441;-74
2023/06/30 08:52:19;;;;;;;;;;;;;;;22.90;29.96;97813.09;4997502;28;968;-74
2023/06/30 08:54:45;;;;;;;;;;;;;;;22.99;29.86;97816.00;4981214;28;1465;-74
2023/06/30 08:57:15;;;;;;;;;;;;;;;22.87;29.84;97812.72;5021433;28;2001;-74
2023/06/30 08:59:43;;;;;;;;;;;;;;;22.95;30.01;97809.66;4998495;28;993;-74
2023/06/30 09:02:09;;;;;;;;;;;;;;;22.98;29.67;97808.75;5003005;28;1303;-74
2023/06/30 09:04:35;;;;;;;;;;;;;;;23.06;29.61;97804.44;4981809;28;1126;-75
2023/06/30 09:07:00;;;;;;;;;;;;;;;22.63;30.02;97805.88;4994034;28;1316;-74
2023/06/30 09:09:31;;;;;;;;;;;;;;;22.57;30.40;97807.69;5000982;28;1076;-74
2023/06/30 09:11:56;;;;;;;;;;;;;;;22.80;29.90;97815.81;5001347;28;939;-75
2023/06/30 09:14:22;;;;;;;;;;;;;;;22.88;29.70;97811.50;4984207;28;1408;-74
2023/06/30 09:16:47;;;;;;;;;;;;;;;23.01;29.36;97805.00;4981532;28;1965;-75
2023/06/30 09:19:14;;;;;;;;;;;;;;;23.10;29.30;97805.06;4965733;28;1121;-75
2023/06/30 09:21:39;;;;;;;;;;;;;;;22.89;29.46;97809.47;4965714;28;973;-75
2023/06/30 09:24:05;;;;;;;;;;;;;;;22.84;29.40;97807.19;4981477;28;1673;-74
2023/06/30 09:26:32;;;;;;;;;;;;;;;22.99;29.52;97805.44;4942573;29;1075;-76
2023/06/30 09:28:58;;;;;;;;;;;;;;;22.79;29.63;97802.88;4942650;29;1162;-75
2023/06/30 09:31:32;;;;;;;;;;;;;;;22.84;29.71;97807.97;4926622;29;942;-74
2023/06/30 09:34:08;;;;;;;;;;;;;;;22.66;29.80;97795.66;4943064;29;1715;-75
2023/06/30 09:36:34;;;;;;;;;;;;;;;22.78;29.82;97806.97;4977808;28;1910;-76
2023/06/30 09:38:59;;;;;;;;;;;;;;;22.65;30.10;97806.22;4963232;28;858;-76
2023/06/30 09:41:25;;;;;;;;;;;;;;;22.97;29.30;97804.34;4947613;28;1253;-77
2023/06/30 09:43:56;;;;;;;;;;;;;;;22.89;29.54;97800.94;4958697;28;1708;-75
2023/06/30 09:46:21;;;;;;;;;;;;;;;22.85;29.77;97795.38;4982274;28;1848;-76
2023/06/30 09:48:47;;;;;;;;;;;;;;;22.85;29.64;97806.72;4965561;28;1148;-75
2023/06/30 09:51:19;;;;;;;;;;;;;;;22.98;29.57;97798.19;4982397;28;1625;-76
2023/06/30 09:53:44;;;;;;;;;;;;;;;22.83;29.87;97795.03;4978250;28;1728;-76
2023/06/30 09:56:11;;;;;;;;;;;;;;;22.81;29.64;97794.72;4962687;28;1972;-76
2023/06/30 09:58:39;;;;;;;;;;;;;;;22.79;29.60;97794.38;5016499;28;1349;-76
2023/06/30 10:01:04;;;;;;;;;;;;;;;22.74;29.77;97788.47;5005124;28;1154;-76
2023/06/30 10:03:30;;;;;;;;;;;;;;;22.91;29.65;97792.00;5000341;28;1382;-77
2023/06/30 10:05:55;;;;;;;;;;;;;;;23.08;29.39;97784.88;5001568;28;1235;-77
2023/06/30 10:08:21;;;;;;;;;;;;;;;22.66;30.09;97793.63;5017554;28;1413;-76
2023/06/30 10:10:46;;;;;;;;;;;;;;;22.87;29.67;97789.25;5017840;28;899;-76
2023/06/30 10:13:12;;;;;;;;;;;;;;;22.85;29.65;97795.38;4998094;28;1613;-76
2023/06/30 10:15:38;;;;;;;;;;;;;;;22.96;29.43;97782.91;5024298;28;1909;-76
2023/06/30 10:18:04;;;;;;;;;;;;;;;22.84;29.60;97779.59;5037467;28;802;-76
2023/06/30 10:20:29;;;;;;;;;;;;;;;23.01;29.45;97773.81;5020826;28;908;-76
2023/06/30 10:22:55;;;;;;;;;;;;;;;22.82;29.66;97773.59;5003683;28;1335;-76
2023/06/30 10:25:20;;;;;;;;;;;;;;;22.84;29.92;97775.97;5013822;28;896;-76
2023/06/30 10:27:46;;;;;;;;;;;;;;;22.80;29.70;97773.28;5019851;28;924;-76
2023/06/30 10:30:12;;;;;;;;;;;;;;;22.68;30.11;97779.75;5018621;28;1010;-76
2023/06/30 10:32:38;;;;;;;;;;;;;;;22.90;29.63;97767.69;4991863;28;1519;-76
2023/06/30 10:35:03;;;;;;;;;;;;;;;22.79;29.75;97768.84;4977586;28;968;-76
2023/06/30 10:37:29;;;;;;;;;;;;;;;22.87;29.73;97764.50;4961801;28;1902;-76
2023/06/30 10:39:54;;;;;;;;;;;;;;;22.99;29.43;97770.63;4945711;28;1063;-76
2023/06/30 10:42:20;;;;;;;;;;;;;;;22.86;29.58;97768.59;4977516;28;1510;-76
2023/06/30 10:44:46;;;;;;;;;;;;;;;22.89;29.62;97758.38;4977648;28;924;-76
2023/06/30 10:47:12;;;;;;;;;;;;;;;22.95;29.32;97755.75;4978202;28;929;-76
2023/06/30 10:49:40;;;;;;;;;;;;;;;23.01;29.38;97756.78;4961664;28;951;-76
2023/06/30 10:52:10;;;;;;;;;;;;;;;22.96;29.46;97763.84;4970833;28;1485;-76
2023/06/30 10:54:39;;;;;;;;;;;;;;;22.86;29.66;97747.94;4965297;28;912;-76
2023/06/30 10:57:11;;;;;;;;;;;;;;;22.87;29.46;97752.38;4981694;28;1981;-76
2023/06/30 10:59:40;;;;;;;;;;;;;;;22.97;29.28;97744.75;4964710;28;1069;-76
2023/06/30 11:02:23;;;;;;;;;;;;;;;23.03;29.12;97754.25;4968539;28;1715;-76
2023/06/30 11:04:50;;;;;;;;;;;;;;;22.98;29.40;97747.13;4977604;28;877;-76
2023/06/30 11:07:16;;;;;;;;;;;;;;;22.95;29.64;97748.06;4962169;28;1001;-76
2023/06/30 11:09:47;;;;;;;;;;;;;;;22.75;30.10;97751.16;4961521;28;1086;-75
2023/06/30 11:12:15;;;;;;;;;;;;;;;22.66;30.09;97748.25;4977784;28;1341;-76
2023/06/30 11:14:56;;;;;;;;;;;;;;;22.44;30.45;97741.72;4999902;28;970;-76
2023/06/30 11:17:45;;;;;;;;;;;;;;;22.83;29.65;97746.81;5016253;28;1983;-77
2023/06/30 11:20:11;;;;;;;;;;;;;;;22.82;29.68;97742.41;5015653;28;976;-76
2023/06/30 11:22:36;;;;;;;;;;;;;;;22.96;29.55;97738.28;4989005;28;1326;-76
2023/06/30 11:25:03;;;;;;;;;;;;;;;22.91;29.29;97741.72;4964192;28;1099;-76
2023/06/30 11:27:30;;;;;;;;;;;;;;;22.93;29.57;97739.19;4964594;28;1146;-76
2023/06/30 11:29:55;;;;;;;;;;;;;;;22.68;30.01;97739.25;4980609;28;928;-76
2023/06/30 11:32:24;;;;;;;;;;;;;;;22.81;29.46;97735.16;4972754;28;1368;-76
2023/06/30 11:34:50;;;;;;;;;;;;;;;23.01;29.47;97728.41;4960842;28;1362;-76
2023/06/30 11:37:15;;;;;;;;;;;;;;;22.70;29.88;97720.56;4941329;29;1985;-76
2023/06/30 11:43:17;;;;;;;;;;;;;;;22.83;29.78;97717.66;4962070;28;1647;-76
2023/06/30 11:45:43;;;;;;;;;;;;;;;22.96;29.30;97704.25;4961220;28;1137;-76
2023/06/30 11:51:43;;;;;;;;;;;;;;;22.85;29.78;97710.28;4976625;28;739;-75
2023/06/30 11:54:09;;;;;;;;;;;;;;;22.82;29.80;97718.91;4945586;29;1407;-76
2023/06/30 11:56:38;;;;;;;;;;;;;;;22.92;29.57;97714.13;4884347;29;1958;-75
2023/06/30 11:59:03;;;;;;;;;;;;;;;22.76;30.05;97706.56;4874151;29;975;-76
2023/06/30 12:01:29;;;;;;;;;;;;;;;22.73;30.05;97708.28;4925476;29;1221;-76
2023/06/30 12:04:08;;;;;;;;;;;;;;;22.87;29.90;97713.44;4913085;29;1390;-76
2023/06/30 12:06:35;;;;;;;;;;;;;;;22.64;29.99;97705.38;4906490;29;1264;-75
2023/06/30 12:09:02;;;;;;;;;;;;;;;22.71;30.04;97710.78;4922043;29;1021;-76
2023/06/30 12:11:28;;;;;;;;;;;;;;;23.02;29.43;97695.94;4941172;29;1145;-75
2023/06/30 12:13:53;;;;;;;;;;;;;;;22.84;29.67;97697.31;4946531;29;1241;-76
2023/06/30 12:16:19;;;;;;;;;;;;;;;22.75;29.95;97683.09;4937618;29;1974;-77
2023/06/30 12:18:44;;;;;;;;;;;;;;;22.93;29.57;97687.34;4918441;29;955;-76
2023/06/30 12:21:10;;;;;;;;;;;;;;;22.99;29.27;97682.66;4919037;29;1268;-76
2023/06/30 12:23:45;;;;;;;;;;;;;;;22.69;29.97;97684.94;4918608;29;1341;-76
2023/06/30 12:26:11;;;;;;;;;;;;;;;22.77;29.85;97674.91;4918834;29;1502;-76
2023/06/30 12:28:37;;;;;;;;;;;;;;;22.91;29.83;97684.19;4953873;29;1391;-77
2023/06/30 12:31:02;;;;;;;;;;;;;;;23.04;29.27;97679.22;4976533;28;926;-76
2023/06/30 12:33:28;;;;;;;;;;;;;;;22.67;30.02;97676.09;4968694;28;1569;-76
2023/06/30 12:35:54;;;;;;;;;;;;;;;22.89;29.34;97681.78;4924816;29;1906;-76
2023/06/30 12:38:19;;;;;;;;;;;;;;;22.85;29.78;97667.72;4956424;29;967;-76
2023/06/30 12:40:45;;;;;;;;;;;;;;;22.86;29.48;97663.63;4941370;29;1133;-76
2023/06/30 12:43:10;;;;;;;;;;;;;;;22.76;29.81;97667.66;4940303;29;1499;-76
2023/06/30 12:45:36;;;;;;;;;;;;;;;22.87;29.90;97664.41;4937043;29;1563;-75
2023/06/30 12:48:01;;;;;;;;;;;;;;;22.72;29.93;97655.63;4940073;29;1442;-76
2023/06/30 12:50:27;;;;;;;;;;;;;;;22.73;29.88;97656.44;4959332;28;982;-75
2023/06/30 12:52:52;;;;;;;;;;;;;;;22.82;29.73;97659.34;4944928;28;1327;-76
2023/06/30 12:55:22;;;;;;;;;;;;;;;22.71;29.80;97658.94;4987826;28;1018;-76
2023/06/30 12:57:48;;;;;;;;;;;;;;;22.76;29.79;97650.63;4995486;28;1914;-77
2023/06/30 13:00:14;;;;;;;;;;;;;;;22.84;29.63;97656.81;4979198;28;1117;-76
2023/06/30 13:02:40;;;;;;;;;;;;;;;22.67;29.93;97664.75;4963160;28;1177;-76